TISX/STX METAR and TAF weather

Enter ICAO airport designator
Station Type Date Time Source
TISX METAR 2022/11/30 10:53 UTC NOAA

TISX 301053Z 05006KT 10SM FEW020 SCT030 24/20 A2992 RMK AO2 SLP131 T02390200 $


Station Type Date Time Source
TISX Decoded METAR 2022/11/30 10:53 UTC NOAA

Christiansted, Henry E. Rohlsen Airport, Virgin Islands (TISX) 17-42N 064-48W 17M
Nov 30, 2022 - 05:53 AM EST / 2022.11.30 1053 UTC
Wind: from the NE (050 degrees) at 7 MPH (6 KT):0
Visibility: 10 mile(s):0
Sky conditions: partly cloudy
Temperature: 75.0 F (23.9 C)
Dew Point: 68.0 F (20.0 C)
Relative Humidity: 78%
Pressure (altimeter): 29.92 in. Hg (1013 hPa)
ob: TISX 301053Z 05006KT 10SM FEW020 SCT030 24/20 A2992 RMK AO2 SLP131 T02390200
cycle: 11

Station Type Date Time Source
TISX TAF 2022/11/30 06:43 UTC NOAA

TAF TISX 300536Z 3006/0106 05005KT P6SM FEW028
FM301400 06012KT P6SM FEW025 SCT035
FM302300 04006KT P6SM SCT030

Example: see airport list